Flight Track Log - Related Links

Times and Time Zones

All times are in EDT time to prevent confusion due to time zone crossing. See the ASH20 flight status page for this flight to view local times or setup timezone preferences in your user account.

Time Position Orientation Groundspeed Altitude Reporting Facility
EDT Latitude Longitude Course Direction KTS MPH feet Rate Location/Type
Tue 12:19:44 PM 20.9167 -156.4167 255° West 160 184 1,500  Level Honolulu Center
Tue 12:20:44 PM 20.9667 -156.4333 343° North 240 276 4,000 2,850 Climbing Honolulu Center
Tue 12:21:44 PM 21.0000 -156.5000 298° West 270 311 7,200 2,600 Climbing Honolulu Center
Tue 12:22:44 PM 21.0000 -156.5833 270° West 290 334 9,200 2,600 Climbing Honolulu Center
Tue 12:23:44 PM 21.0000 -156.6667 270° West 300 345 12,400 2,700 Climbing Honolulu Center
Tue 12:24:44 PM 20.9833 -156.7500 258° West 310 357 14,600 1,800 Climbing Honolulu Center
Tue 12:25:00 PM 20.7693 -156.8896 255° West  Level FlightAware Approximate
Tue 12:25:44 PM 20.9833 -156.8500 270° West 320 368 16,000  Level Honolulu Center
Tue 12:26:45 PM 20.9667 -156.9500 260° West 340 391 16,000 -50 Level Honolulu Center
Tue 12:27:45 PM 20.9667 -157.0500 270° West 350 403 15,900 -50 Descending Honolulu Center
Tue 12:28:45 PM 20.9500 -157.1500 260° West 350 403 15,900  Level Honolulu Center
Tue 12:29:45 PM 20.9500 -157.2667 270° West 360 414 15,900 -1,300 Level Honolulu Center
Tue 12:30:45 PM 20.9500 -157.3667 270° West 350 403 13,300 -2,300 Descending Honolulu Center
Tue 12:31:45 PM 20.9833 -157.4667 290° West 320 368 11,300 -2,000 Descending Honolulu Center
Tue 12:32:45 PM 21.0167 -157.5500 293° West 300 345 9,300 -2,000 Descending Honolulu Center
Tue 12:33:45 PM 21.0333 -157.6333 282° West 290 334 7,300 -2,000 Descending Honolulu Center
Tue 12:34:45 PM 21.0667 -157.7000 298° West 280 322 5,300 -2,000 Descending Honolulu Center
Tue 12:35:45 PM 21.1000 -157.7833 293° West 270 311 3,300 -1,250 Descending Honolulu Center
Tue 12:36:45 PM 21.1167 -157.8500 285° West 220 253 2,800 -893 Descending Honolulu Center
Tue 12:37:46 PM 21.1667 -157.8833 328° Northwest 200 230 1,500 -645 Descending Honolulu Center
Tue 12:38:46 PM 21.2167 -157.9167 328° Northwest 210 242 1,500  Level Honolulu Center

Login

Don't have an account? Register now (free) for customized features, flight alerts, and more!